sensor_id;sensor_type;location;lat;lon;timestamp;P1;durP1;ratioP1;P2;durP2;ratioP2
52554;SDS011;38455;52.710;6.502;2023-04-08T00:00:35;12.32;;;8.43;;
52554;SDS011;38455;52.710;6.502;2023-04-08T00:03:01;13.52;;;8.73;;
52554;SDS011;38455;52.710;6.502;2023-04-08T00:05:26;10.85;;;7.20;;
52554;SDS011;38455;52.710;6.502;2023-04-08T00:07:52;12.73;;;8.23;;
52554;SDS011;38455;52.710;6.502;2023-04-08T00:10:18;12.05;;;8.23;;
52554;SDS011;38455;52.710;6.502;2023-04-08T00:12:44;12.25;;;7.22;;
52554;SDS011;38455;52.710;6.502;2023-04-08T00:15:10;11.93;;;7.45;;
52554;SDS011;38455;52.710;6.502;2023-04-08T00:17:36;11.70;;;7.22;;
52554;SDS011;38455;52.710;6.502;2023-04-08T00:20:03;12.20;;;7.80;;
52554;SDS011;38455;52.710;6.502;2023-04-08T00:22:29;10.82;;;7.53;;
52554;SDS011;38455;52.710;6.502;2023-04-08T00:24:56;12.07;;;7.50;;
52554;SDS011;38455;52.710;6.502;2023-04-08T00:27:22;12.07;;;7.35;;
52554;SDS011;38455;52.710;6.502;2023-04-08T00:29:49;13.43;;;8.60;;
52554;SDS011;38455;52.710;6.502;2023-04-08T00:32:15;12.45;;;7.03;;
52554;SDS011;38455;52.710;6.502;2023-04-08T00:34:41;12.00;;;7.90;;
52554;SDS011;38455;52.710;6.502;2023-04-08T00:37:07;11.60;;;8.05;;
52554;SDS011;38455;52.710;6.502;2023-04-08T00:39:33;10.38;;;7.35;;
52554;SDS011;38455;52.710;6.502;2023-04-08T00:41:59;12.65;;;8.48;;
52554;SDS011;38455;52.710;6.502;2023-04-08T00:44:26;11.90;;;7.97;;
52554;SDS011;38455;52.710;6.502;2023-04-08T00:46:52;10.68;;;7.68;;
52554;SDS011;38455;52.710;6.502;2023-04-08T00:49:18;12.82;;;7.57;;
52554;SDS011;38455;52.710;6.502;2023-04-08T00:51:44;13.77;;;8.25;;
52554;SDS011;38455;52.710;6.502;2023-04-08T00:54:09;13.07;;;8.23;;
52554;SDS011;38455;52.710;6.502;2023-04-08T00:56:35;12.65;;;7.80;;
52554;SDS011;38455;52.710;6.502;2023-04-08T00:59:02;14.75;;;8.63;;
52554;SDS011;38455;52.710;6.502;2023-04-08T01:04:20;13.52;;;8.82;;
52554;SDS011;38455;52.710;6.502;2023-04-08T01:06:56;15.10;;;8.65;;
52554;SDS011;38455;52.710;6.502;2023-04-08T01:09:44;17.98;;;8.80;;
52554;SDS011;38455;52.710;6.502;2023-04-08T01:12:11;13.43;;;8.63;;
52554;SDS011;38455;52.710;6.502;2023-04-08T01:14:43;14.82;;;8.90;;
52554;SDS011;38455;52.710;6.502;2023-04-08T01:17:11;15.30;;;8.32;;
52554;SDS011;38455;52.710;6.502;2023-04-08T01:19:38;15.63;;;9.63;;
52554;SDS011;38455;52.710;6.502;2023-04-08T01:22:14;11.35;;;7.60;;
52554;SDS011;38455;52.710;6.502;2023-04-08T01:24:43;14.18;;;8.48;;
52554;SDS011;38455;52.710;6.502;2023-04-08T01:27:11;21.73;;;9.90;;
52554;SDS011;38455;52.710;6.502;2023-04-08T01:29:38;13.82;;;8.73;;
52554;SDS011;38455;52.710;6.502;2023-04-08T01:32:04;13.80;;;8.50;;
52554;SDS011;38455;52.710;6.502;2023-04-08T01:34:31;19.95;;;8.88;;
52554;SDS011;38455;52.710;6.502;2023-04-08T01:36:59;12.20;;;8.45;;
52554;SDS011;38455;52.710;6.502;2023-04-08T01:39:26;14.07;;;9.18;;
52554;SDS011;38455;52.710;6.502;2023-04-08T01:41:53;12.82;;;8.25;;
52554;SDS011;38455;52.710;6.502;2023-04-08T01:44:21;17.88;;;9.88;;
52554;SDS011;38455;52.710;6.502;2023-04-08T01:46:48;16.00;;;9.45;;
52554;SDS011;38455;52.710;6.502;2023-04-08T01:49:15;15.15;;;9.02;;
52554;SDS011;38455;52.710;6.502;2023-04-08T01:51:42;17.27;;;9.45;;
52554;SDS011;38455;52.710;6.502;2023-04-08T01:54:10;13.20;;;8.35;;
52554;SDS011;38455;52.710;6.502;2023-04-08T01:56:36;15.70;;;9.88;;
52554;SDS011;38455;52.710;6.502;2023-04-08T01:59:05;16.25;;;9.10;;
52554;SDS011;38455;52.710;6.502;2023-04-08T02:01:36;16.40;;;9.77;;
52554;SDS011;38455;52.710;6.502;2023-04-08T02:04:02;16.88;;;9.98;;
52554;SDS011;38455;52.710;6.502;2023-04-08T02:06:28;18.38;;;10.32;;
52554;SDS011;38455;52.710;6.502;2023-04-08T02:08:56;15.75;;;9.70;;
52554;SDS011;38455;52.710;6.502;2023-04-08T02:11:21;17.20;;;9.85;;
52554;SDS011;38455;52.710;6.502;2023-04-08T02:13:49;17.55;;;10.07;;
52554;SDS011;38455;52.710;6.502;2023-04-08T02:16:15;15.40;;;9.93;;
52554;SDS011;38455;52.710;6.502;2023-04-08T02:18:48;17.10;;;10.73;;
52554;SDS011;38455;52.710;6.502;2023-04-08T02:21:23;19.13;;;11.07;;
52554;SDS011;38455;52.710;6.502;2023-04-08T02:23:57;16.08;;;10.05;;
52554;SDS011;38455;52.710;6.502;2023-04-08T02:26:23;16.65;;;10.32;;
52554;SDS011;38455;52.710;6.502;2023-04-08T02:28:51;17.42;;;10.68;;
52554;SDS011;38455;52.710;6.502;2023-04-08T02:31:19;20.23;;;11.48;;
52554;SDS011;38455;52.710;6.502;2023-04-08T02:33:45;20.27;;;11.68;;
52554;SDS011;38455;52.710;6.502;2023-04-08T02:36:12;18.08;;;11.63;;
52554;SDS011;38455;52.710;6.502;2023-04-08T02:38:39;20.50;;;12.30;;
52554;SDS011;38455;52.710;6.502;2023-04-08T02:41:05;19.88;;;11.98;;
52554;SDS011;38455;52.710;6.502;2023-04-08T02:43:31;18.40;;;12.10;;
52554;SDS011;38455;52.710;6.502;2023-04-08T02:45:57;19.73;;;11.80;;
52554;SDS011;38455;52.710;6.502;2023-04-08T02:48:31;22.48;;;11.90;;
52554;SDS011;38455;52.710;6.502;2023-04-08T02:50:57;22.75;;;12.98;;
52554;SDS011;38455;52.710;6.502;2023-04-08T02:53:22;23.92;;;12.88;;
52554;SDS011;38455;52.710;6.502;2023-04-08T02:55:48;19.52;;;11.73;;
52554;SDS011;38455;52.710;6.502;2023-04-08T02:58:14;21.25;;;12.77;;
52554;SDS011;38455;52.710;6.502;2023-04-08T03:00:40;20.35;;;11.60;;
52554;SDS011;38455;52.710;6.502;2023-04-08T03:03:06;19.98;;;12.20;;
52554;SDS011;38455;52.710;6.502;2023-04-08T03:05:31;20.65;;;11.98;;
52554;SDS011;38455;52.710;6.502;2023-04-08T03:07:57;20.75;;;12.75;;
52554;SDS011;38455;52.710;6.502;2023-04-08T03:10:23;21.13;;;12.55;;
52554;SDS011;38455;52.710;6.502;2023-04-08T03:12:49;22.17;;;13.32;;
52554;SDS011;38455;52.710;6.502;2023-04-08T03:15:14;21.50;;;13.23;;
52554;SDS011;38455;52.710;6.502;2023-04-08T03:17:40;23.30;;;13.52;;
52554;SDS011;38455;52.710;6.502;2023-04-08T03:20:06;24.75;;;13.93;;
52554;SDS011;38455;52.710;6.502;2023-04-08T03:22:32;25.40;;;13.48;;
52554;SDS011;38455;52.710;6.502;2023-04-08T03:24:58;23.63;;;14.23;;
52554;SDS011;38455;52.710;6.502;2023-04-08T03:27:24;26.40;;;13.95;;
52554;SDS011;38455;52.710;6.502;2023-04-08T03:29:49;20.42;;;13.07;;
52554;SDS011;38455;52.710;6.502;2023-04-08T03:32:15;25.45;;;15.80;;
52554;SDS011;38455;52.710;6.502;2023-04-08T03:34:41;20.55;;;14.02;;
52554;SDS011;38455;52.710;6.502;2023-04-08T03:37:06;19.90;;;12.45;;
52554;SDS011;38455;52.710;6.502;2023-04-08T03:39:32;28.35;;;13.68;;
52554;SDS011;38455;52.710;6.502;2023-04-08T03:41:58;23.13;;;13.90;;
52554;SDS011;38455;52.710;6.502;2023-04-08T03:44:25;24.33;;;14.25;;
52554;SDS011;38455;52.710;6.502;2023-04-08T03:46:51;26.83;;;16.17;;
52554;SDS011;38455;52.710;6.502;2023-04-08T03:49:17;25.65;;;14.40;;
52554;SDS011;38455;52.710;6.502;2023-04-08T03:51:42;25.77;;;16.27;;
52554;SDS011;38455;52.710;6.502;2023-04-08T03:54:08;25.77;;;14.27;;
52554;SDS011;38455;52.710;6.502;2023-04-08T03:56:34;24.83;;;14.82;;
52554;SDS011;38455;52.710;6.502;2023-04-08T03:58:59;30.35;;;15.48;;
52554;SDS011;38455;52.710;6.502;2023-04-08T04:01:25;28.92;;;16.35;;
52554;SDS011;38455;52.710;6.502;2023-04-08T04:03:51;28.33;;;16.55;;
52554;SDS011;38455;52.710;6.502;2023-04-08T04:06:16;27.50;;;16.05;;
52554;SDS011;38455;52.710;6.502;2023-04-08T04:08:42;27.23;;;16.20;;
52554;SDS011;38455;52.710;6.502;2023-04-08T04:11:07;27.17;;;16.02;;
52554;SDS011;38455;52.710;6.502;2023-04-08T04:13:33;28.88;;;16.23;;
52554;SDS011;38455;52.710;6.502;2023-04-08T04:15:59;26.67;;;16.33;;
52554;SDS011;38455;52.710;6.502;2023-04-08T04:18:24;28.23;;;16.90;;
52554;SDS011;38455;52.710;6.502;2023-04-08T04:20:50;31.60;;;16.98;;
52554;SDS011;38455;52.710;6.502;2023-04-08T04:23:16;26.10;;;17.08;;
52554;SDS011;38455;52.710;6.502;2023-04-08T04:25:42;31.52;;;17.75;;
52554;SDS011;38455;52.710;6.502;2023-04-08T04:28:08;31.73;;;17.83;;
52554;SDS011;38455;52.710;6.502;2023-04-08T04:30:37;32.22;;;17.77;;
52554;SDS011;38455;52.710;6.502;2023-04-08T04:33:04;30.00;;;17.45;;
52554;SDS011;38455;52.710;6.502;2023-04-08T04:35:30;30.92;;;18.48;;
52554;SDS011;38455;52.710;6.502;2023-04-08T04:37:56;32.08;;;18.00;;
52554;SDS011;38455;52.710;6.502;2023-04-08T04:40:21;30.80;;;18.48;;
52554;SDS011;38455;52.710;6.502;2023-04-08T04:42:47;31.30;;;18.73;;
52554;SDS011;38455;52.710;6.502;2023-04-08T04:45:13;31.20;;;18.23;;
52554;SDS011;38455;52.710;6.502;2023-04-08T04:47:38;32.63;;;19.65;;
52554;SDS011;38455;52.710;6.502;2023-04-08T04:50:04;32.28;;;18.42;;
52554;SDS011;38455;52.710;6.502;2023-04-08T04:52:30;30.52;;;18.15;;
52554;SDS011;38455;52.710;6.502;2023-04-08T04:54:56;33.25;;;18.65;;
52554;SDS011;38455;52.710;6.502;2023-04-08T04:57:22;33.03;;;18.95;;
52554;SDS011;38455;52.710;6.502;2023-04-08T04:59:48;30.50;;;18.58;;
52554;SDS011;38455;52.710;6.502;2023-04-08T05:02:14;29.98;;;18.40;;
52554;SDS011;38455;52.710;6.502;2023-04-08T05:04:39;33.92;;;19.48;;
52554;SDS011;38455;52.710;6.502;2023-04-08T05:07:05;30.40;;;18.08;;
52554;SDS011;38455;52.710;6.502;2023-04-08T05:09:31;34.28;;;19.92;;
52554;SDS011;38455;52.710;6.502;2023-04-08T05:11:56;36.42;;;19.27;;
52554;SDS011;38455;52.710;6.502;2023-04-08T05:14:22;32.10;;;18.75;;
52554;SDS011;38455;52.710;6.502;2023-04-08T05:16:48;28.58;;;17.02;;
52554;SDS011;38455;52.710;6.502;2023-04-08T05:19:13;32.60;;;19.17;;
52554;SDS011;38455;52.710;6.502;2023-04-08T05:21:39;33.83;;;19.63;;
52554;SDS011;38455;52.710;6.502;2023-04-08T05:24:05;31.60;;;18.88;;
52554;SDS011;38455;52.710;6.502;2023-04-08T05:26:30;29.25;;;17.98;;
52554;SDS011;38455;52.710;6.502;2023-04-08T05:28:57;37.97;;;20.15;;
52554;SDS011;38455;52.710;6.502;2023-04-08T05:31:22;29.02;;;17.60;;
52554;SDS011;38455;52.710;6.502;2023-04-08T05:33:48;32.40;;;19.45;;
52554;SDS011;38455;52.710;6.502;2023-04-08T05:36:14;31.90;;;19.02;;
52554;SDS011;38455;52.710;6.502;2023-04-08T05:38:40;32.78;;;19.30;;
52554;SDS011;38455;52.710;6.502;2023-04-08T05:41:08;30.75;;;19.52;;
52554;SDS011;38455;52.710;6.502;2023-04-08T05:43:34;31.98;;;20.13;;
52554;SDS011;38455;52.710;6.502;2023-04-08T05:46:07;30.65;;;18.83;;
52554;SDS011;38455;52.710;6.502;2023-04-08T05:48:33;35.17;;;20.27;;
52554;SDS011;38455;52.710;6.502;2023-04-08T05:50:59;34.38;;;20.10;;
52554;SDS011;38455;52.710;6.502;2023-04-08T05:53:25;41.92;;;20.30;;
52554;SDS011;38455;52.710;6.502;2023-04-08T05:55:51;32.05;;;19.45;;
52554;SDS011;38455;52.710;6.502;2023-04-08T05:58:16;31.83;;;19.02;;
52554;SDS011;38455;52.710;6.502;2023-04-08T06:00:42;29.13;;;18.25;;
52554;SDS011;38455;52.710;6.502;2023-04-08T06:03:07;32.08;;;18.90;;
52554;SDS011;38455;52.710;6.502;2023-04-08T06:05:33;29.17;;;18.98;;
52554;SDS011;38455;52.710;6.502;2023-04-08T06:07:59;29.88;;;19.05;;
52554;SDS011;38455;52.710;6.502;2023-04-08T06:10:25;28.88;;;18.20;;
52554;SDS011;38455;52.710;6.502;2023-04-08T06:12:50;31.15;;;18.85;;
52554;SDS011;38455;52.710;6.502;2023-04-08T06:15:16;30.92;;;18.08;;
52554;SDS011;38455;52.710;6.502;2023-04-08T06:17:42;28.92;;;18.33;;
52554;SDS011;38455;52.710;6.502;2023-04-08T06:20:07;30.00;;;18.20;;
52554;SDS011;38455;52.710;6.502;2023-04-08T06:22:34;33.28;;;19.60;;
52554;SDS011;38455;52.710;6.502;2023-04-08T06:25:00;34.35;;;18.92;;
52554;SDS011;38455;52.710;6.502;2023-04-08T06:27:26;34.03;;;19.05;;
52554;SDS011;38455;52.710;6.502;2023-04-08T06:29:52;33.25;;;19.52;;
52554;SDS011;38455;52.710;6.502;2023-04-08T06:32:17;36.28;;;20.15;;
52554;SDS011;38455;52.710;6.502;2023-04-08T06:34:44;31.35;;;19.40;;
52554;SDS011;38455;52.710;6.502;2023-04-08T06:37:10;36.08;;;20.98;;
52554;SDS011;38455;52.710;6.502;2023-04-08T06:39:35;30.52;;;18.38;;
52554;SDS011;38455;52.710;6.502;2023-04-08T06:42:01;33.92;;;20.50;;
52554;SDS011;38455;52.710;6.502;2023-04-08T06:44:27;36.95;;;19.85;;
52554;SDS011;38455;52.710;6.502;2023-04-08T06:46:52;33.92;;;19.38;;
52554;SDS011;38455;52.710;6.502;2023-04-08T06:49:18;34.35;;;19.92;;
52554;SDS011;38455;52.710;6.502;2023-04-08T06:51:43;37.83;;;21.23;;
52554;SDS011;38455;52.710;6.502;2023-04-08T06:54:09;36.13;;;20.30;;
52554;SDS011;38455;52.710;6.502;2023-04-08T06:56:35;36.95;;;20.50;;
52554;SDS011;38455;52.710;6.502;2023-04-08T06:59:01;38.50;;;21.30;;
52554;SDS011;38455;52.710;6.502;2023-04-08T07:01:28;34.67;;;19.85;;
52554;SDS011;38455;52.710;6.502;2023-04-08T07:03:54;35.78;;;18.77;;
52554;SDS011;38455;52.710;6.502;2023-04-08T07:06:20;33.63;;;20.35;;
52554;SDS011;38455;52.710;6.502;2023-04-08T07:08:46;31.95;;;20.30;;
52554;SDS011;38455;52.710;6.502;2023-04-08T07:11:12;34.15;;;19.90;;
52554;SDS011;38455;52.710;6.502;2023-04-08T07:13:38;33.78;;;19.38;;
52554;SDS011;38455;52.710;6.502;2023-04-08T07:16:03;33.70;;;20.73;;
52554;SDS011;38455;52.710;6.502;2023-04-08T07:18:30;30.98;;;19.45;;
52554;SDS011;38455;52.710;6.502;2023-04-08T07:20:55;31.63;;;19.27;;
52554;SDS011;38455;52.710;6.502;2023-04-08T07:23:22;28.83;;;18.23;;
52554;SDS011;38455;52.710;6.502;2023-04-08T07:25:47;32.80;;;19.85;;
52554;SDS011;38455;52.710;6.502;2023-04-08T07:28:13;32.22;;;18.92;;
52554;SDS011;38455;52.710;6.502;2023-04-08T07:30:39;35.17;;;19.80;;
52554;SDS011;38455;52.710;6.502;2023-04-08T07:33:04;27.40;;;18.45;;
52554;SDS011;38455;52.710;6.502;2023-04-08T07:35:30;27.13;;;18.08;;
52554;SDS011;38455;52.710;6.502;2023-04-08T07:37:56;29.05;;;19.00;;
52554;SDS011;38455;52.710;6.502;2023-04-08T07:40:22;28.42;;;18.90;;
52554;SDS011;38455;52.710;6.502;2023-04-08T07:42:48;25.48;;;17.55;;
52554;SDS011;38455;52.710;6.502;2023-04-08T07:45:13;24.45;;;17.30;;
52554;SDS011;38455;52.710;6.502;2023-04-08T07:47:39;24.02;;;16.55;;
52554;SDS011;38455;52.710;6.502;2023-04-08T07:50:05;21.58;;;15.43;;
52554;SDS011;38455;52.710;6.502;2023-04-08T07:52:32;22.10;;;16.42;;
52554;SDS011;38455;52.710;6.502;2023-04-08T07:54:58;25.35;;;18.42;;
52554;SDS011;38455;52.710;6.502;2023-04-08T07:57:24;20.98;;;15.57;;
52554;SDS011;38455;52.710;6.502;2023-04-08T07:59:50;24.20;;;15.55;;
52554;SDS011;38455;52.710;6.502;2023-04-08T08:02:16;22.35;;;15.90;;
52554;SDS011;38455;52.710;6.502;2023-04-08T08:04:42;20.60;;;15.10;;
52554;SDS011;38455;52.710;6.502;2023-04-08T08:07:07;21.52;;;16.05;;
52554;SDS011;38455;52.710;6.502;2023-04-08T08:09:33;20.73;;;15.43;;
52554;SDS011;38455;52.710;6.502;2023-04-08T08:11:59;19.63;;;15.35;;
52554;SDS011;38455;52.710;6.502;2023-04-08T08:14:25;21.48;;;15.18;;
52554;SDS011;38455;52.710;6.502;2023-04-08T08:16:51;18.75;;;14.57;;
52554;SDS011;38455;52.710;6.502;2023-04-08T08:19:18;17.15;;;12.77;;
52554;SDS011;38455;52.710;6.502;2023-04-08T08:21:44;16.35;;;12.60;;
52554;SDS011;38455;52.710;6.502;2023-04-08T08:24:10;17.27;;;12.95;;
52554;SDS011;38455;52.710;6.502;2023-04-08T08:26:36;15.77;;;13.32;;
52554;SDS011;38455;52.710;6.502;2023-04-08T08:29:02;14.10;;;12.13;;
52554;SDS011;38455;52.710;6.502;2023-04-08T08:31:28;15.93;;;12.57;;
52554;SDS011;38455;52.710;6.502;2023-04-08T08:33:54;14.32;;;11.95;;
52554;SDS011;38455;52.710;6.502;2023-04-08T08:36:20;14.43;;;12.60;;
52554;SDS011;38455;52.710;6.502;2023-04-08T08:38:46;13.98;;;12.20;;
52554;SDS011;38455;52.710;6.502;2023-04-08T08:41:12;15.05;;;12.68;;
52554;SDS011;38455;52.710;6.502;2023-04-08T08:43:37;16.00;;;12.77;;
52554;SDS011;38455;52.710;6.502;2023-04-08T08:46:03;15.70;;;13.10;;
52554;SDS011;38455;52.710;6.502;2023-04-08T08:48:30;15.10;;;11.55;;
52554;SDS011;38455;52.710;6.502;2023-04-08T08:50:57;14.70;;;11.35;;
52554;SDS011;38455;52.710;6.502;2023-04-08T08:53:27;13.55;;;11.70;;
52554;SDS011;38455;52.710;6.502;2023-04-08T08:55:54;13.13;;;10.85;;
52554;SDS011;38455;52.710;6.502;2023-04-08T08:58:20;14.63;;;11.68;;
52554;SDS011;38455;52.710;6.502;2023-04-08T09:00:46;12.88;;;9.57;;
52554;SDS011;38455;52.710;6.502;2023-04-08T09:03:15;15.20;;;10.20;;
52554;SDS011;38455;52.710;6.502;2023-04-08T09:05:53;12.27;;;9.57;;
52554;SDS011;38455;52.710;6.502;2023-04-08T09:08:24;11.45;;;9.45;;
52554;SDS011;38455;52.710;6.502;2023-04-08T09:10:52;11.75;;;9.75;;
52554;SDS011;38455;52.710;6.502;2023-04-08T09:13:18;10.55;;;9.07;;
52554;SDS011;38455;52.710;6.502;2023-04-08T09:15:59;12.63;;;9.35;;
52554;SDS011;38455;52.710;6.502;2023-04-08T09:18:27;10.88;;;8.98;;
52554;SDS011;38455;52.710;6.502;2023-04-08T09:20:53;11.57;;;9.75;;
52554;SDS011;38455;52.710;6.502;2023-04-08T09:23:19;12.00;;;8.98;;
52554;SDS011;38455;52.710;6.502;2023-04-08T09:25:45;11.77;;;9.05;;
52554;SDS011;38455;52.710;6.502;2023-04-08T09:28:19;10.02;;;8.90;;
52554;SDS011;38455;52.710;6.502;2023-04-08T09:30:45;10.30;;;9.15;;
52554;SDS011;38455;52.710;6.502;2023-04-08T09:33:11;11.65;;;9.73;;
52554;SDS011;38455;52.710;6.502;2023-04-08T09:35:37;9.27;;;7.95;;
52554;SDS011;38455;52.710;6.502;2023-04-08T09:38:03;10.52;;;8.98;;
52554;SDS011;38455;52.710;6.502;2023-04-08T09:40:31;10.32;;;9.07;;
52554;SDS011;38455;52.710;6.502;2023-04-08T09:42:59;10.60;;;9.23;;
52554;SDS011;38455;52.710;6.502;2023-04-08T09:45:29;10.77;;;9.07;;
52554;SDS011;38455;52.710;6.502;2023-04-08T09:48:16;10.25;;;8.45;;
52554;SDS011;38455;52.710;6.502;2023-04-08T09:50:48;10.75;;;9.48;;
52554;SDS011;38455;52.710;6.502;2023-04-08T09:55:52;10.88;;;9.68;;
52554;SDS011;38455;52.710;6.502;2023-04-08T09:58:21;10.90;;;9.45;;
52554;SDS011;38455;52.710;6.502;2023-04-08T10:00:57;11.15;;;9.95;;
52554;SDS011;38455;52.710;6.502;2023-04-08T10:06:01;10.88;;;9.45;;
52554;SDS011;38455;52.710;6.502;2023-04-08T10:08:27;11.38;;;9.75;;
52554;SDS011;38455;52.710;6.502;2023-04-08T10:10:55;11.20;;;8.45;;
52554;SDS011;38455;52.710;6.502;2023-04-08T10:13:21;10.55;;;9.15;;
52554;SDS011;38455;52.710;6.502;2023-04-08T10:15:48;11.60;;;9.43;;
52554;SDS011;38455;52.710;6.502;2023-04-08T10:20:42;9.57;;;8.57;;
52554;SDS011;38455;52.710;6.502;2023-04-08T10:23:10;9.98;;;8.95;;
52554;SDS011;38455;52.710;6.502;2023-04-08T10:25:47;9.52;;;8.43;;
52554;SDS011;38455;52.710;6.502;2023-04-08T10:30:42;9.85;;;8.60;;
52554;SDS011;38455;52.710;6.502;2023-04-08T10:33:16;8.88;;;7.63;;
52554;SDS011;38455;52.710;6.502;2023-04-08T10:36:19;9.15;;;8.18;;
52554;SDS011;38455;52.710;6.502;2023-04-08T10:38:39;10.18;;;8.98;;
52554;SDS011;38455;52.710;6.502;2023-04-08T10:41:06;11.65;;;9.02;;
52554;SDS011;38455;52.710;6.502;2023-04-08T10:43:38;10.48;;;8.45;;
52554;SDS011;38455;52.710;6.502;2023-04-08T10:46:03;10.52;;;9.20;;
52554;SDS011;38455;52.710;6.502;2023-04-08T10:48:29;9.73;;;8.73;;
52554;SDS011;38455;52.710;6.502;2023-04-08T10:53:25;9.43;;;8.40;;
52554;SDS011;38455;52.710;6.502;2023-04-08T10:56:17;9.88;;;8.88;;
52554;SDS011;38455;52.710;6.502;2023-04-08T10:58:50;11.80;;;8.93;;
52554;SDS011;38455;52.710;6.502;2023-04-08T11:01:17;11.00;;;8.95;;
52554;SDS011;38455;52.710;6.502;2023-04-08T11:03:43;9.48;;;8.43;;
52554;SDS011;38455;52.710;6.502;2023-04-08T11:06:09;12.02;;;10.38;;
52554;SDS011;38455;52.710;6.502;2023-04-08T11:08:35;10.55;;;9.07;;
52554;SDS011;38455;52.710;6.502;2023-04-08T11:11:02;11.05;;;9.77;;
52554;SDS011;38455;52.710;6.502;2023-04-08T11:13:29;9.60;;;8.63;;
52554;SDS011;38455;52.710;6.502;2023-04-08T11:15:56;10.00;;;8.98;;
52554;SDS011;38455;52.710;6.502;2023-04-08T11:18:23;11.85;;;9.50;;
52554;SDS011;38455;52.710;6.502;2023-04-08T11:20:49;9.88;;;8.88;;
52554;SDS011;38455;52.710;6.502;2023-04-08T11:23:16;11.63;;;10.27;;
52554;SDS011;38455;52.710;6.502;2023-04-08T11:25:42;11.05;;;9.95;;
52554;SDS011;38455;52.710;6.502;2023-04-08T11:28:10;12.25;;;9.82;;
52554;SDS011;38455;52.710;6.502;2023-04-08T11:30:37;11.00;;;9.23;;
52554;SDS011;38455;52.710;6.502;2023-04-08T11:33:06;10.68;;;9.00;;
52554;SDS011;38455;52.710;6.502;2023-04-08T11:35:32;10.63;;;9.52;;
52554;SDS011;38455;52.710;6.502;2023-04-08T11:37:58;9.90;;;8.90;;
52554;SDS011;38455;52.710;6.502;2023-04-08T11:40:24;11.38;;;9.50;;
52554;SDS011;38455;52.710;6.502;2023-04-08T11:42:50;10.88;;;8.30;;
52554;SDS011;38455;52.710;6.502;2023-04-08T11:45:18;10.48;;;9.02;;
52554;SDS011;38455;52.710;6.502;2023-04-08T11:47:45;11.80;;;9.80;;
52554;SDS011;38455;52.710;6.502;2023-04-08T11:50:12;10.77;;;8.77;;
52554;SDS011;38455;52.710;6.502;2023-04-08T11:52:50;10.70;;;9.40;;
52554;SDS011;38455;52.710;6.502;2023-04-08T11:55:21;13.80;;;9.93;;
52554;SDS011;38455;52.710;6.502;2023-04-08T11:58:00;11.07;;;8.50;;
52554;SDS011;38455;52.710;6.502;2023-04-08T12:00:28;10.95;;;7.95;;
52554;SDS011;38455;52.710;6.502;2023-04-08T12:02:53;9.98;;;8.00;;
52554;SDS011;38455;52.710;6.502;2023-04-08T12:05:19;9.73;;;8.25;;
52554;SDS011;38455;52.710;6.502;2023-04-08T12:07:45;9.35;;;8.25;;
52554;SDS011;38455;52.710;6.502;2023-04-08T12:10:11;9.45;;;8.13;;
52554;SDS011;38455;52.710;6.502;2023-04-08T12:12:38;11.07;;;8.73;;
52554;SDS011;38455;52.710;6.502;2023-04-08T12:15:04;9.52;;;7.47;;
52554;SDS011;38455;52.710;6.502;2023-04-08T12:17:32;11.70;;;8.40;;
52554;SDS011;38455;52.710;6.502;2023-04-08T12:19:58;9.70;;;8.18;;
52554;SDS011;38455;52.710;6.502;2023-04-08T12:22:25;9.68;;;8.50;;
52554;SDS011;38455;52.710;6.502;2023-04-08T12:24:50;9.07;;;7.88;;
52554;SDS011;38455;52.710;6.502;2023-04-08T12:27:16;9.93;;;8.20;;
52554;SDS011;38455;52.710;6.502;2023-04-08T12:29:42;9.35;;;7.35;;
52554;SDS011;38455;52.710;6.502;2023-04-08T12:32:07;11.00;;;9.32;;
52554;SDS011;38455;52.710;6.502;2023-04-08T12:34:33;13.35;;;8.88;;
52554;SDS011;38455;52.710;6.502;2023-04-08T12:36:59;12.35;;;9.07;;
52554;SDS011;38455;52.710;6.502;2023-04-08T12:39:25;10.90;;;8.73;;
52554;SDS011;38455;52.710;6.502;2023-04-08T12:41:50;10.43;;;8.10;;
52554;SDS011;38455;52.710;6.502;2023-04-08T12:44:16;11.13;;;9.23;;
52554;SDS011;38455;52.710;6.502;2023-04-08T12:46:42;12.55;;;8.23;;
52554;SDS011;38455;52.710;6.502;2023-04-08T12:49:07;11.50;;;8.45;;
52554;SDS011;38455;52.710;6.502;2023-04-08T12:51:33;10.00;;;8.55;;
52554;SDS011;38455;52.710;6.502;2023-04-08T12:54:00;12.27;;;9.43;;
52554;SDS011;38455;52.710;6.502;2023-04-08T12:56:28;13.88;;;9.52;;
52554;SDS011;38455;52.710;6.502;2023-04-08T12:58:54;13.95;;;9.32;;
52554;SDS011;38455;52.710;6.502;2023-04-08T13:01:21;12.50;;;9.48;;
52554;SDS011;38455;52.710;6.502;2023-04-08T13:03:47;11.30;;;9.15;;
52554;SDS011;38455;52.710;6.502;2023-04-08T13:06:13;14.00;;;9.88;;
52554;SDS011;38455;52.710;6.502;2023-04-08T13:08:39;12.57;;;9.77;;
52554;SDS011;38455;52.710;6.502;2023-04-08T13:11:06;12.70;;;9.52;;
52554;SDS011;38455;52.710;6.502;2023-04-08T13:13:32;13.15;;;9.35;;
52554;SDS011;38455;52.710;6.502;2023-04-08T13:15:58;13.57;;;9.70;;
52554;SDS011;38455;52.710;6.502;2023-04-08T13:18:24;12.52;;;9.68;;
52554;SDS011;38455;52.710;6.502;2023-04-08T13:20:49;12.35;;;9.57;;
52554;SDS011;38455;52.710;6.502;2023-04-08T13:23:15;13.27;;;10.48;;
52554;SDS011;38455;52.710;6.502;2023-04-08T13:25:42;12.30;;;9.63;;
52554;SDS011;38455;52.710;6.502;2023-04-08T13:28:09;12.65;;;8.90;;
52554;SDS011;38455;52.710;6.502;2023-04-08T13:30:35;15.25;;;10.48;;
52554;SDS011;38455;52.710;6.502;2023-04-08T13:33:01;14.55;;;10.57;;
52554;SDS011;38455;52.710;6.502;2023-04-08T13:35:27;11.95;;;9.13;;
52554;SDS011;38455;52.710;6.502;2023-04-08T13:37:52;12.48;;;9.75;;
52554;SDS011;38455;52.710;6.502;2023-04-08T13:40:18;13.63;;;9.98;;
52554;SDS011;38455;52.710;6.502;2023-04-08T13:42:44;16.95;;;10.95;;
52554;SDS011;38455;52.710;6.502;2023-04-08T13:45:09;15.18;;;11.88;;
52554;SDS011;38455;52.710;6.502;2023-04-08T13:47:35;14.73;;;11.20;;
52554;SDS011;38455;52.710;6.502;2023-04-08T13:50:01;16.98;;;11.40;;
52554;SDS011;38455;52.710;6.502;2023-04-08T13:52:27;15.75;;;11.52;;
52554;SDS011;38455;52.710;6.502;2023-04-08T13:54:52;14.73;;;10.40;;
52554;SDS011;38455;52.710;6.502;2023-04-08T13:57:18;14.32;;;10.98;;
52554;SDS011;38455;52.710;6.502;2023-04-08T13:59:44;18.10;;;10.50;;
52554;SDS011;38455;52.710;6.502;2023-04-08T14:02:10;16.38;;;11.45;;
52554;SDS011;38455;52.710;6.502;2023-04-08T14:04:36;17.08;;;11.77;;
52554;SDS011;38455;52.710;6.502;2023-04-08T14:07:02;16.13;;;11.55;;
52554;SDS011;38455;52.710;6.502;2023-04-08T14:09:27;17.77;;;12.45;;
52554;SDS011;38455;52.710;6.502;2023-04-08T14:11:53;14.98;;;11.50;;
52554;SDS011;38455;52.710;6.502;2023-04-08T14:14:20;16.90;;;12.45;;
52554;SDS011;38455;52.710;6.502;2023-04-08T14:16:45;18.35;;;12.20;;
52554;SDS011;38455;52.710;6.502;2023-04-08T14:19:11;21.00;;;13.27;;
52554;SDS011;38455;52.710;6.502;2023-04-08T14:21:37;19.80;;;12.70;;
52554;SDS011;38455;52.710;6.502;2023-04-08T14:24:03;18.45;;;13.20;;
52554;SDS011;38455;52.710;6.502;2023-04-08T14:26:29;17.38;;;12.15;;
52554;SDS011;38455;52.710;6.502;2023-04-08T14:28:59;18.35;;;12.75;;
52554;SDS011;38455;52.710;6.502;2023-04-08T14:31:30;23.30;;;14.70;;
52554;SDS011;38455;52.710;6.502;2023-04-08T14:33:56;20.95;;;14.55;;
52554;SDS011;38455;52.710;6.502;2023-04-08T14:36:23;25.45;;;15.70;;
52554;SDS011;38455;52.710;6.502;2023-04-08T14:38:49;21.70;;;14.00;;
52554;SDS011;38455;52.710;6.502;2023-04-08T14:41:15;24.00;;;15.32;;